createdAt,value
2023-05-08T00:03:44.642Z,62.42
2023-05-08T00:08:48.977Z,61.76
2023-05-08T00:13:53.206Z,61.36
2023-05-08T00:18:57.525Z,61.24
2023-05-08T00:24:01.332Z,61.13
2023-05-08T00:29:06.733Z,61.01
2023-05-08T00:34:10.986Z,59.89
2023-05-08T00:39:15.150Z,59.76
2023-05-08T00:44:19.130Z,58.26
2023-05-08T00:49:23.814Z,58.25
2023-05-08T00:54:28.677Z,58.08
2023-05-08T00:59:32.892Z,58.29
2023-05-08T01:04:38.508Z,58.16
2023-05-08T01:09:42.448Z,57.44
2023-05-08T01:15:13.644Z,57.49
2023-05-08T01:20:54.321Z,56.51
2023-05-08T01:26:17.034Z,56.13
2023-05-08T01:31:45.457Z,55.87
2023-05-08T01:37:00.509Z,55.03
2023-05-08T01:42:11.427Z,54.44
2023-05-08T01:47:18.879Z,54.26
2023-05-08T01:52:35.789Z,53.89
2023-05-08T01:57:47.877Z,53.07
2023-05-08T02:02:53.223Z,52.21
2023-05-08T02:07:58.256Z,51.57
2023-05-08T02:13:03.377Z,50.96
2023-05-08T02:18:10.743Z,49.92
2023-05-08T02:23:20.541Z,48.98
2023-05-08T02:28:25.662Z,48.00
2023-05-08T02:33:31.142Z,46.28
2023-05-08T02:38:38.499Z,44.25
2023-05-08T02:43:43.378Z,42.09
2023-05-08T02:49:06.014Z,40.84
2023-05-08T02:54:25.409Z,39.55
2023-05-08T02:59:45.236Z,37.28
2023-05-08T03:05:04.126Z,36.21
2023-05-08T03:10:14.296Z,35.03
2023-05-08T03:15:44.317Z,34.16
2023-05-08T03:20:53.649Z,33.73
2023-05-08T03:26:53.726Z,32.85
2023-05-08T03:32:02.808Z,33.17
2023-05-08T03:37:07.182Z,33.79
2023-05-08T03:42:17.713Z,33.17
2023-05-08T03:47:22.920Z,32.11
2023-05-08T03:52:27.415Z,31.78
2023-05-08T03:58:04.125Z,32.09
2023-05-08T04:03:29.478Z,31.79
2023-05-08T04:08:44.092Z,30.90
2023-05-08T04:13:55.326Z,30.39
2023-05-08T04:19:05.074Z,30.63
2023-05-08T04:24:11.453Z,31.23
2023-05-08T04:29:15.757Z,30.74
2023-05-08T04:34:20.418Z,30.26
2023-05-08T04:39:24.636Z,29.52
2023-05-08T04:44:29.233Z,29.42
2023-05-08T04:49:33.388Z,29.78
2023-05-08T04:54:37.736Z,29.18
2023-05-08T04:59:41.738Z,29.55
2023-05-08T05:04:46.179Z,28.28
2023-05-08T05:09:51.002Z,27.74
2023-05-08T05:14:55.121Z,27.45
2023-05-08T05:20:00.780Z,26.76
2023-05-08T05:25:07.720Z,27.01
2023-05-08T05:30:13.162Z,27.38
2023-05-08T05:35:17.845Z,27.04
2023-05-08T05:40:22.040Z,26.56
2023-05-08T05:45:26.449Z,26.68
2023-05-08T05:50:30.507Z,25.85
2023-05-08T05:55:36.291Z,25.39
2023-05-08T06:00:40.628Z,25.44
2023-05-08T06:05:47.814Z,25.09
2023-05-08T06:10:51.673Z,24.43
2023-05-08T06:15:59.511Z,21.40
2023-05-08T06:21:03.609Z,21.18
2023-05-08T06:26:07.713Z,20.16
2023-05-08T06:31:11.866Z,19.07
2023-05-08T06:36:16.204Z,19.45
2023-05-08T06:41:20.454Z,18.51
2023-05-08T06:46:24.505Z,18.74
2023-05-08T06:51:28.584Z,18.65
2023-05-08T06:56:32.644Z,18.28
2023-05-08T07:01:38.212Z,18.61
2023-05-08T07:06:42.212Z,17.45
2023-05-08T07:11:46.404Z,17.44
2023-05-08T07:16:50.396Z,17.60
2023-05-08T07:21:54.175Z,17.75
2023-05-08T07:27:00.556Z,16.84
2023-05-08T07:32:09.126Z,16.65
2023-05-08T07:37:13.476Z,17.01
2023-05-08T07:42:19.194Z,17.43
2023-05-08T07:47:23.348Z,17.06
2023-05-08T07:52:27.369Z,17.24
2023-05-08T07:57:40.575Z,16.53
2023-05-08T08:02:46.097Z,16.97
2023-05-08T08:07:50.178Z,16.32
2023-05-08T08:12:54.060Z,16.12
2023-05-08T08:17:58.373Z,16.06
2023-05-08T08:23:02.312Z,15.89
2023-05-08T08:28:06.415Z,16.14
2023-05-08T08:33:10.531Z,16.50
2023-05-08T08:38:14.559Z,16.61
2023-05-08T08:43:19.003Z,16.92
2023-05-08T08:48:29.381Z,16.66
2023-05-08T08:53:38.710Z,17.34
2023-05-08T08:58:57.819Z,16.93
2023-05-08T09:04:02.269Z,17.52
2023-05-08T09:09:07.039Z,17.83
2023-05-08T09:14:10.897Z,17.29
2023-05-08T09:19:17.294Z,17.47
2023-05-08T09:24:21.482Z,17.08
2023-05-08T09:29:25.608Z,17.64
2023-05-08T09:34:34.089Z,17.56
2023-05-08T09:39:42.275Z,17.35
2023-05-08T09:44:54.542Z,17.86
2023-05-08T09:50:09.648Z,16.92
2023-05-08T09:55:13.798Z,17.06
2023-05-08T10:00:18.193Z,17.26
2023-05-08T10:05:33.792Z,17.12
2023-05-08T10:10:39.271Z,17.23
2023-05-08T10:15:44.657Z,17.05
2023-05-08T10:20:50.739Z,17.00
2023-05-08T10:26:01.811Z,17.29
2023-05-08T10:31:09.169Z,16.98
2023-05-08T10:36:15.358Z,16.40
2023-05-08T10:41:23.019Z,16.56
2023-05-08T10:46:49.876Z,16.71
2023-05-08T10:52:10.334Z,17.04
2023-05-08T10:57:14.170Z,18.02
2023-05-08T11:02:29.621Z,17.24
2023-05-08T11:07:56.642Z,17.42
2023-05-08T11:13:02.131Z,17.16
2023-05-08T11:18:18.578Z,17.08
2023-05-08T11:23:27.775Z,17.21
2023-05-08T11:28:39.365Z,17.69
2023-05-08T11:33:43.293Z,17.91
2023-05-08T11:39:09.444Z,18.12
2023-05-08T11:44:32.784Z,18.22
2023-05-08T11:49:37.636Z,17.83
2023-05-08T11:54:41.533Z,17.80
2023-05-08T11:59:45.741Z,17.77
2023-05-08T12:04:49.955Z,17.93
2023-05-08T12:09:54.725Z,17.88
2023-05-08T12:14:58.798Z,17.91
2023-05-08T12:20:18.297Z,17.97
2023-05-08T12:25:22.633Z,17.77
2023-05-08T12:30:26.981Z,17.62
2023-05-08T12:35:31.789Z,17.64
2023-05-08T12:40:43.704Z,17.59
2023-05-08T12:45:48.067Z,17.91
2023-05-08T12:50:51.915Z,17.83
2023-05-08T12:55:59.034Z,17.93
2023-05-08T13:01:07.111Z,18.92
2023-05-08T13:06:23.643Z,18.84
2023-05-08T13:11:33.861Z,19.33
2023-05-08T13:16:48.567Z,19.72
2023-05-08T13:21:53.665Z,20.57
2023-05-08T13:26:57.682Z,20.69
2023-05-08T13:32:01.671Z,22.65
2023-05-08T13:37:05.794Z,23.75
2023-05-08T13:42:10.594Z,24.12
2023-05-08T13:47:14.652Z,24.56
2023-05-08T13:52:18.710Z,25.66
2023-05-08T13:57:23.412Z,26.30
2023-05-08T14:02:27.930Z,27.90
2023-05-08T14:07:32.128Z,29.30
2023-05-08T14:12:36.924Z,30.64
2023-05-08T14:17:41.066Z,31.44
2023-05-08T14:22:46.205Z,32.50
2023-05-08T14:27:51.937Z,33.34
2023-05-08T14:32:55.855Z,34.08
2023-05-08T14:38:00.033Z,34.39
2023-05-08T14:43:04.071Z,34.86
2023-05-08T14:48:08.278Z,35.77
2023-05-08T14:53:12.194Z,36.25
2023-05-08T14:58:16.379Z,36.46
2023-05-08T15:03:20.546Z,37.04
2023-05-08T15:08:24.612Z,36.96
2023-05-08T15:13:28.650Z,37.60
2023-05-08T15:18:32.544Z,38.93
2023-05-08T15:23:37.201Z,39.13
2023-05-08T15:28:42.054Z,39.89
2023-05-08T15:33:46.114Z,40.65
2023-05-08T15:38:50.173Z,41.09
2023-05-08T15:43:55.953Z,41.97
2023-05-08T15:49:01.988Z,42.13
2023-05-08T15:54:06.846Z,41.84
2023-05-08T15:59:10.833Z,42.09
2023-05-08T16:04:14.806Z,42.92
2023-05-08T16:09:18.801Z,43.79
2023-05-08T16:14:22.638Z,44.45
2023-05-08T16:19:26.639Z,45.07
2023-05-08T16:24:32.304Z,44.94
2023-05-08T16:29:36.211Z,44.70
2023-05-08T16:34:40.367Z,45.26
2023-05-08T16:39:44.201Z,45.58
2023-05-08T16:44:48.580Z,45.85
2023-05-08T16:49:52.608Z,45.59
2023-05-08T16:54:56.598Z,44.56
2023-05-08T17:00:00.597Z,45.17
2023-05-08T17:05:04.674Z,46.13
2023-05-08T17:10:09.888Z,46.08
2023-05-08T17:15:13.928Z,46.42
2023-05-08T17:20:18.177Z,45.58
2023-05-08T17:25:23.356Z,44.50
2023-05-08T17:30:28.597Z,43.63
2023-05-08T17:35:32.476Z,42.99
2023-05-08T17:40:37.657Z,43.28
2023-05-08T17:45:41.730Z,43.96
2023-05-08T17:50:47.492Z,44.82
2023-05-08T17:55:51.487Z,43.84
2023-05-08T18:00:56.769Z,43.17
2023-05-08T18:06:00.872Z,44.04
2023-05-08T18:11:04.672Z,44.95
2023-05-08T18:16:08.681Z,45.23
2023-05-08T18:21:12.497Z,45.69
2023-05-08T18:26:17.227Z,46.04
2023-05-08T18:31:21.644Z,45.86
2023-05-08T18:36:25.607Z,45.29
2023-05-08T18:41:29.644Z,45.83
2023-05-08T18:46:33.549Z,45.90
2023-05-08T18:51:37.661Z,47.10
2023-05-08T18:56:41.683Z,47.82
2023-05-08T19:01:45.671Z,48.68
2023-05-08T19:06:49.717Z,49.11
2023-05-08T19:11:53.533Z,49.49
2023-05-08T19:16:58.479Z,49.23
2023-05-08T19:22:02.622Z,48.58
2023-05-08T19:27:07.409Z,48.63
2023-05-08T19:32:11.495Z,48.75
2023-05-08T19:37:15.270Z,48.77
2023-05-08T19:42:19.200Z,49.12
2023-05-08T19:47:23.073Z,49.23
2023-05-08T19:52:27.518Z,49.12
2023-05-08T19:57:31.457Z,49.39
2023-05-08T20:02:35.339Z,48.94
2023-05-08T20:07:39.307Z,48.84
2023-05-08T20:12:43.237Z,49.34
2023-05-08T20:17:47.374Z,49.36
2023-05-08T20:22:51.339Z,50.11
2023-05-08T20:27:55.285Z,50.49
2023-05-08T20:33:05.514Z,50.32
2023-05-08T20:38:09.897Z,50.33
2023-05-08T20:43:13.805Z,50.63
2023-05-08T20:48:17.833Z,50.39
2023-05-08T20:53:22.107Z,50.13
2023-05-08T20:58:25.979Z,50.51
2023-05-08T21:03:30.008Z,50.30
2023-05-08T21:08:33.804Z,50.65
2023-05-08T21:13:37.668Z,50.49
2023-05-08T21:18:41.658Z,50.99
2023-05-08T21:23:45.483Z,51.23
2023-05-08T21:28:49.559Z,51.83
2023-05-08T21:33:53.703Z,52.13
2023-05-08T21:38:57.848Z,51.77
2023-05-08T21:44:01.994Z,52.39
2023-05-08T21:49:06.068Z,52.79
2023-05-08T21:54:10.440Z,53.16
2023-05-08T21:59:14.214Z,53.58
2023-05-08T22:04:18.202Z,53.68
2023-05-08T22:09:22.355Z,53.17
2023-05-08T22:14:26.405Z,53.48
2023-05-08T22:19:30.406Z,53.80
2023-05-08T22:24:34.180Z,53.93
2023-05-08T22:29:38.202Z,54.38
2023-05-08T22:34:42.537Z,54.65
2023-05-08T22:39:46.278Z,54.52
2023-05-08T22:44:50.258Z,54.45
2023-05-08T22:49:54.995Z,54.57
2023-05-08T22:54:59.209Z,54.73
2023-05-08T23:00:03.229Z,55.38
2023-05-08T23:05:10.290Z,55.36
2023-05-08T23:10:14.885Z,55.95
2023-05-08T23:15:19.186Z,55.68
2023-05-08T23:20:23.092Z,55.67
2023-05-08T23:25:27.162Z,55.17
2023-05-08T23:30:31.387Z,55.12
2023-05-08T23:35:35.306Z,54.44
2023-05-08T23:41:19.454Z,54.65
2023-05-08T23:46:23.334Z,53.96
2023-05-08T23:51:27.429Z,53.79
2023-05-08T23:56:31.650Z,53.35
